Terrell, TX

9:17 PM CDT on September 25, 2016 (GMT -0500)
APRSWXNET | | Change Station

Elev 505 ft 32.80 °N, 96.30 °W | Updated 30 minutes ago

Overcast
Overcast
73 °F
Feels Like 73 °F
N
1
Wind Variable Wind from North
Gusts 6.0 mph

Today
High -- | Low -- °F
--% Chance of Precip.
Yesterday
High -- | Low -- °F
Precip. -- in
Pressure 30.05 in
Visibility 10.0 miles
Clouds Overcast 800 ft
Dew Point 72 °F
Humidity 96%
Rainfall in
Snow Depth Not available.
7:15 AM 7:17 PM
Waning Crescent, 23% visible
METAR KTRL 260153Z AUTO 34003KT 10SM OVC008 23/22 A3007 RMK AO2 SLP175 T02330217
Pressure 30.05 in
Visibility 10.0 miles
Clouds Overcast 800 ft
Dew Point 72 °F
Humidity 96%
Rainfall in
Snow Depth Not available.
7:15 AM 7:17 PM
Waning Crescent, 23% visible
METAR KTRL 260153Z AUTO 34003KT 10SM OVC008 23/22 A3007 RMK AO2 SLP175 T02330217

10-Day Weather Forecast

Almanac

Astronomy

Sep. 25, 2016 Rise Set
Actual Time
Civil Twilight
Nautical Twilight
Astronomical Twilight
Moon
Length of Visible Light
Length of Day
Tomorrow will be .
, % of the Moon is Illuminated

Today's Extremes

State Highs State Lows

Community

WunderPhotos

Upload Photos

1,941,811 photos uploaded!

WunderBlog® & News

Nearby

Air Quality

  Air Quality AQ Index Pollutant
Not available.

Snow Depth

Station Depth Elevation

Earthquake Activity

City Distance Mag. Time & Date
Minimum magnitude displayed is 2.5.

Coastal Water Temperatures

Place Temperature

Stations

Nearby Weather Stations

Station Location Temp. Windchill Dew Point Humidity Wind Precip. Elev Updated Type
                   

Watches & Warnings

There are currently no watches in effect.